Time,TemperatureF,DewpointF,PressureIn,WindDirection,WindDirectionDegrees,WindSpeedMPH,WindSpeedGustMPH,Humidity,HourlyPrecipIn,Conditions,Clouds,dailyrainin,SoftwareType,DateUTC
2013-12-13 00:01:00,21.3,10.0,30.22,SSW,200,3.0,6.0,61,0.00,,,0.00,WeatherCatV1.22B15,2013-12-13 05:01:00,
2013-12-13 00:03:00,21.3,10.0,30.22,SSW,198,0.0,5.0,61,0.00,,,0.00,WeatherCatV1.22B15,2013-12-13 05:03:00,
2013-12-13 00:04:00,21.4,10.1,30.22,South,191,3.0,5.0,61,0.00,,,0.00,WeatherCatV1.22B15,2013-12-13 05:04:00,
2013-12-13 00:05:00,21.3,10.0,30.22,South,186,5.0,5.0,61,0.00,,,0.00,WeatherCatV1.22B15,2013-12-13 05:05:00,
2013-12-13 00:09:00,21.4,10.1,30.22,SW,221,0.0,3.0,61,0.00,,,0.00,WeatherCatV1.22B15,2013-12-13 05:09:00,
2013-12-13 00:14:00,21.4,10.1,30.22,SW,223,0.0,4.0,61,0.00,,,0.00,WeatherCatV1.22B15,2013-12-13 05:14:00,
2013-12-13 00:17:00,21.4,10.4,30.22,South,180,0.0,5.0,62,0.00,,,0.00,WeatherCatV1.22B15,2013-12-13 05:17:00,
2013-12-13 00:22:00,21.4,10.4,30.22,WSW,241,4.0,6.0,62,0.00,,,0.00,WeatherCatV1.22B15,2013-12-13 05:22:00,
2013-12-13 00:27:00,21.4,10.4,30.22,SW,223,2.0,4.0,62,0.00,,,0.00,WeatherCatV1.22B15,2013-12-13 05:27:00,
2013-12-13 00:32:00,21.4,10.4,30.22,South,190,1.0,4.0,62,0.00,,,0.00,WeatherCatV1.22B15,2013-12-13 05:32:00,
2013-12-13 00:37:00,21.5,10.5,30.21,South,187,0.0,0.0,62,0.00,,,0.00,WeatherCatV1.22B15,2013-12-13 05:37:00,
2013-12-13 00:42:00,21.6,10.6,30.21,SSW,203,3.0,5.0,62,0.00,,,0.00,WeatherCatV1.22B15,2013-12-13 05:42:00,
2013-12-13 00:48:00,21.6,10.6,30.21,SW,214,0.0,4.0,62,0.00,,,0.00,WeatherCatV1.22B15,2013-12-13 05:48:00,
2013-12-13 00:53:00,21.7,11.1,30.21,SSE,147,0.0,5.0,63,0.00,,,0.00,WeatherCatV1.22B15,2013-12-13 05:53:00,
2013-12-13 00:58:00,22.1,12.2,30.20,SW,223,2.0,4.0,65,0.00,,,0.00,WeatherCatV1.22B15,2013-12-13 05:58:00,
2013-12-13 01:03:00,22.1,11.8,30.20,SSW,202,0.0,4.0,64,0.00,,,0.00,WeatherCatV1.22B15,2013-12-13 06:03:00,
2013-12-13 01:08:00,22.0,11.7,30.20,WSW,240,0.0,4.0,64,0.00,,,0.00,WeatherCatV1.22B15,2013-12-13 06:08:00,
2013-12-13 01:13:00,22.0,11.7,30.20,SSW,205,0.0,2.0,64,0.00,,,0.00,WeatherCatV1.22B15,2013-12-13 06:13:00,
2013-12-13 01:18:00,21.9,11.6,30.20,SW,215,0.0,5.0,64,0.00,,,0.00,WeatherCatV1.22B15,2013-12-13 06:18:00,
2013-12-13 01:23:00,22.0,12.1,30.20,SSW,205,0.0,5.0,65,0.00,,,0.00,WeatherCatV1.22B15,2013-12-13 06:23:00,
2013-12-13 01:28:00,21.9,11.6,30.20,South,185,0.0,5.0,64,0.00,,,0.00,WeatherCatV1.22B15,2013-12-13 06:28:00,
2013-12-13 01:33:00,21.9,11.6,30.20,SSW,200,1.0,6.0,64,0.00,,,0.00,WeatherCatV1.22B15,2013-12-13 06:33:00,
2013-12-13 01:38:00,21.9,11.6,30.20,SW,221,2.0,4.0,64,0.00,,,0.00,WeatherCatV1.22B15,2013-12-13 06:38:00,
2013-12-13 01:43:00,21.9,12.0,30.19,SSW,205,0.0,0.0,65,0.00,,,0.00,WeatherCatV1.22B15,2013-12-13 06:43:00,
2013-12-13 01:48:00,21.9,12.0,30.19,SW,220,4.0,5.0,65,0.00,,,0.00,WeatherCatV1.22B15,2013-12-13 06:48:00,
2013-12-13 01:53:00,21.9,12.0,30.19,SSW,203,2.0,4.0,65,0.00,,,0.00,WeatherCatV1.22B15,2013-12-13 06:53:00,
2013-12-13 01:58:00,21.9,12.0,30.20,SW,229,0.0,6.0,65,0.00,,,0.00,WeatherCatV1.22B15,2013-12-13 06:58:00,
2013-12-13 02:03:00,22.0,12.1,30.20,SW,220,0.0,4.0,65,0.00,,,0.00,WeatherCatV1.22B15,2013-12-13 07:03:00,
2013-12-13 02:08:00,22.0,12.1,30.20,WSW,241,4.0,6.0,65,0.00,,,0.00,WeatherCatV1.22B15,2013-12-13 07:08:00,
2013-12-13 02:13:00,22.0,11.7,30.20,SSE,148,3.0,6.0,64,0.00,,,0.00,WeatherCatV1.22B15,2013-12-13 07:13:00,
2013-12-13 02:18:00,22.0,11.7,30.20,South,175,0.0,6.0,64,0.00,,,0.00,WeatherCatV1.22B15,2013-12-13 07:18:00,
2013-12-13 02:23:00,22.1,11.8,30.20,SSW,199,5.0,5.0,64,0.00,,,0.00,WeatherCatV1.22B15,2013-12-13 07:23:00,
2013-12-13 02:28:00,22.1,11.8,30.20,SSW,199,7.0,11.0,64,0.00,,,0.00,WeatherCatV1.22B15,2013-12-13 07:28:00,
2013-12-13 02:33:00,22.1,11.8,30.21,SSE,159,6.0,6.0,64,0.00,,,0.00,WeatherCatV1.22B15,2013-12-13 07:33:00,
2013-12-13 02:38:00,22.2,12.2,30.20,SW,219,0.0,4.0,65,0.00,,,0.00,WeatherCatV1.22B15,2013-12-13 07:38:00,
2013-12-13 02:43:00,22.2,12.2,30.21,South,189,0.0,1.0,65,0.00,,,0.00,WeatherCatV1.22B15,2013-12-13 07:43:00,
2013-12-13 02:48:00,22.3,12.4,30.21,SW,235,3.0,7.0,65,0.00,,,0.00,WeatherCatV1.22B15,2013-12-13 07:48:00,
2013-12-13 02:53:00,22.3,12.4,30.21,SW,218,2.0,4.0,65,0.00,,,0.00,WeatherCatV1.22B15,2013-12-13 07:53:00,
2013-12-13 02:58:00,22.4,12.4,30.21,SW,224,0.0,6.0,65,0.00,,,0.00,WeatherCatV1.22B15,2013-12-13 07:58:00,
2013-12-13 03:03:00,22.4,12.1,30.20,SW,226,3.0,7.0,64,0.00,,,0.00,WeatherCatV1.22B15,2013-12-13 08:03:00,
2013-12-13 03:08:00,22.4,12.1,30.21,SW,219,3.0,6.0,64,0.00,,,0.00,WeatherCatV1.22B15,2013-12-13 08:08:00,
2013-12-13 03:13:00,22.4,12.1,30.20,SSW,194,2.0,5.0,64,0.00,,,0.00,WeatherCatV1.22B15,2013-12-13 08:13:00,
2013-12-13 03:18:00,22.6,12.6,30.21,SW,221,2.0,7.0,65,0.00,,,0.00,WeatherCatV1.22B15,2013-12-13 08:18:00,
2013-12-13 03:23:00,22.7,12.7,30.20,West,267,0.0,5.0,65,0.00,,,0.00,WeatherCatV1.22B15,2013-12-13 08:23:00,
2013-12-13 03:28:00,22.7,12.7,30.20,WSW,238,1.0,6.0,65,0.00,,,0.00,WeatherCatV1.22B15,2013-12-13 08:28:00,
2013-12-13 03:33:00,22.7,12.7,30.20,SSW,200,0.0,1.0,65,0.00,,,0.00,WeatherCatV1.22B15,2013-12-13 08:33:00,
2013-12-13 03:38:00,22.7,12.7,30.20,SW,216,2.0,5.0,65,0.00,,,0.00,WeatherCatV1.22B15,2013-12-13 08:38:00,
2013-12-13 03:43:00,22.7,12.7,30.20,SSW,212,0.0,2.0,65,0.00,,,0.00,WeatherCatV1.22B15,2013-12-13 08:43:00,
2013-12-13 03:48:00,22.7,12.7,30.20,SSW,210,0.0,3.0,65,0.00,,,0.00,WeatherCatV1.22B15,2013-12-13 08:48:00,
2013-12-13 03:53:00,22.7,13.1,30.20,SSW,209,1.0,5.0,66,0.00,,,0.00,WeatherCatV1.22B15,2013-12-13 08:53:00,
2013-12-13 03:58:00,22.7,13.1,30.20,SW,217,3.0,5.0,66,0.00,,,0.00,WeatherCatV1.22B15,2013-12-13 08:58:00,
2013-12-13 04:03:00,22.7,13.1,30.20,SW,217,0.0,6.0,66,0.00,,,0.00,WeatherCatV1.22B15,2013-12-13 09:03:00,
2013-12-13 04:08:00,22.7,13.1,30.20,SW,232,0.0,2.0,66,0.00,,,0.00,WeatherCatV1.22B15,2013-12-13 09:08:00,
2013-12-13 04:13:00,22.8,13.2,30.20,South,189,0.0,4.0,66,0.00,,,0.00,WeatherCatV1.22B15,2013-12-13 09:13:00,
2013-12-13 04:19:00,23.0,13.4,30.20,SW,221,0.0,0.0,66,0.00,,,0.00,WeatherCatV1.22B15,2013-12-13 09:19:00,
2013-12-13 04:24:00,23.1,13.5,30.20,SSW,201,3.0,5.0,66,0.00,,,0.00,WeatherCatV1.22B15,2013-12-13 09:24:00,
2013-12-13 04:29:00,23.1,13.8,30.20,SSW,198,2.0,4.0,67,0.00,,,0.00,WeatherCatV1.22B15,2013-12-13 09:29:00,
2013-12-13 04:34:00,23.1,13.8,30.20,West,264,3.0,6.0,67,0.00,,,0.00,WeatherCatV1.22B15,2013-12-13 09:34:00,
2013-12-13 04:39:00,23.1,15.8,30.20,SSW,210,0.0,4.0,73,0.00,,,0.00,WeatherCatV1.22B15,2013-12-13 09:39:00,
2013-12-13 04:44:00,23.1,13.5,30.19,SSW,207,0.0,0.0,66,0.00,,,0.00,WeatherCatV1.22B15,2013-12-13 09:44:00,
2013-12-13 04:49:00,23.1,13.5,30.20,SSW,211,4.0,10.0,66,0.00,,,0.00,WeatherCatV1.22B15,2013-12-13 09:49:00,
2013-12-13 04:54:00,23.1,13.5,30.20,SSW,207,6.0,7.0,66,0.00,,,0.00,WeatherCatV1.22B15,2013-12-13 09:54:00,
2013-12-13 04:59:00,23.1,15.4,30.20,South,190,4.0,7.0,72,0.00,,,0.00,WeatherCatV1.22B15,2013-12-13 09:59:00,
2013-12-13 05:04:00,23.1,13.1,30.19,SSW,192,0.0,7.0,65,0.00,,,0.00,WeatherCatV1.22B15,2013-12-13 10:04:00,
2013-12-13 05:09:00,23.0,13.4,30.20,SSW,202,7.0,7.0,66,0.00,,,0.00,WeatherCatV1.22B15,2013-12-13 10:09:00,
2013-12-13 05:14:00,23.0,13.0,30.20,SW,232,2.0,4.0,65,0.00,,,0.00,WeatherCatV1.22B15,2013-12-13 10:14:00,
2013-12-13 05:19:00,22.9,12.9,30.20,SSW,197,4.0,5.0,65,0.00,,,0.00,WeatherCatV1.22B15,2013-12-13 10:19:00,
2013-12-13 05:24:00,22.9,12.9,30.20,SSW,203,0.0,4.0,65,0.00,,,0.00,WeatherCatV1.22B15,2013-12-13 10:24:00,
2013-12-13 05:29:00,22.8,12.8,30.20,SSW,194,6.0,7.0,65,0.00,,,0.00,WeatherCatV1.22B15,2013-12-13 10:29:00,
2013-12-13 05:34:00,22.8,12.8,30.20,SSW,206,0.0,6.0,65,0.00,,,0.00,WeatherCatV1.22B15,2013-12-13 10:34:00,
2013-12-13 05:39:00,22.8,13.2,30.20,South,191,0.0,6.0,66,0.00,,,0.00,WeatherCatV1.22B15,2013-12-13 10:39:00,
2013-12-13 05:44:00,22.9,12.9,30.20,SSW,195,5.0,9.0,65,0.00,,,0.00,WeatherCatV1.22B15,2013-12-13 10:44:00,
2013-12-13 05:49:00,22.9,12.9,30.20,SSE,157,0.0,6.0,65,0.00,,,0.00,WeatherCatV1.22B15,2013-12-13 10:49:00,
2013-12-13 05:54:00,22.8,12.8,30.20,SSW,197,2.0,2.0,65,0.00,,,0.00,WeatherCatV1.22B15,2013-12-13 10:54:00,
2013-12-13 05:59:00,22.9,12.9,30.20,SW,226,1.0,5.0,65,0.00,,,0.00,WeatherCatV1.22B15,2013-12-13 10:59:00,
2013-12-13 06:04:00,23.0,13.0,30.20,SSE,168,4.0,6.0,65,0.00,,,0.00,WeatherCatV1.22B15,2013-12-13 11:04:00,
2013-12-13 06:09:00,23.0,13.0,30.20,SSW,207,3.0,7.0,65,0.00,,,0.00,WeatherCatV1.22B15,2013-12-13 11:09:00,
2013-12-13 06:14:00,23.0,13.0,30.20,SW,215,7.0,7.0,65,0.00,,,0.00,WeatherCatV1.22B15,2013-12-13 11:14:00,
2013-12-13 06:19:00,23.0,13.0,30.20,SW,218,0.0,1.0,65,0.00,,,0.00,WeatherCatV1.22B15,2013-12-13 11:19:00,
2013-12-13 06:24:00,23.0,13.4,30.20,SW,221,0.0,1.0,66,0.00,,,0.00,WeatherCatV1.22B15,2013-12-13 11:24:00,
2013-12-13 06:29:00,23.0,13.4,30.21,WSW,240,0.0,3.0,66,0.00,,,0.00,WeatherCatV1.22B15,2013-12-13 11:29:00,
2013-12-13 06:34:00,23.0,13.0,30.21,SSW,205,2.0,5.0,65,0.00,,,0.00,WeatherCatV1.22B15,2013-12-13 11:34:00,
2013-12-13 06:39:00,23.1,13.5,30.21,SW,217,0.0,3.0,66,0.00,,,0.00,WeatherCatV1.22B15,2013-12-13 11:39:00,
2013-12-13 06:44:00,23.1,13.5,30.21,SW,215,0.0,4.0,66,0.00,,,0.00,WeatherCatV1.22B15,2013-12-13 11:44:00,
2013-12-13 06:49:00,23.1,13.1,30.21,SSW,199,0.0,3.0,65,0.00,,,0.00,WeatherCatV1.22B15,2013-12-13 11:49:00,
2013-12-13 06:54:00,23.1,13.1,30.21,SSW,202,0.0,1.0,65,0.00,,,0.00,WeatherCatV1.22B15,2013-12-13 11:54:00,
2013-12-13 06:59:00,23.1,13.1,30.20,South,187,3.0,3.0,65,0.00,,,0.00,WeatherCatV1.22B15,2013-12-13 11:59:00,
2013-12-13 07:04:00,23.1,13.1,30.20,SSW,210,0.0,4.0,65,0.00,,,0.00,WeatherCatV1.22B15,2013-12-13 12:04:00,
2013-12-13 07:09:00,23.1,13.1,30.21,SSW,202,0.0,4.0,65,0.00,,,0.00,WeatherCatV1.22B15,2013-12-13 12:09:00,
2013-12-13 07:14:00,23.1,13.5,30.21,SSW,206,0.0,0.0,66,0.00,,,0.00,WeatherCatV1.22B15,2013-12-13 12:14:00,
2013-12-13 07:19:00,23.2,13.6,30.21,SSW,194,0.0,6.0,66,0.00,,,0.00,WeatherCatV1.22B15,2013-12-13 12:19:00,
2013-12-13 07:24:00,23.3,13.6,30.21,SSW,209,4.0,4.0,66,0.00,,,0.00,WeatherCatV1.22B15,2013-12-13 12:24:00,
2013-12-13 07:25:00,23.4,13.7,30.21,SSW,205,0.0,4.0,66,0.00,,,0.00,WeatherCatV1.22B15,2013-12-13 12:25:00,
2013-12-13 07:30:00,23.4,13.7,30.21,South,176,0.0,1.0,66,0.00,,,0.00,WeatherCatV1.22B15,2013-12-13 12:30:00,
2013-12-13 07:35:00,23.3,13.6,30.21,South,176,6.0,6.0,66,0.00,,,0.00,WeatherCatV1.22B15,2013-12-13 12:35:00,
2013-12-13 07:40:00,23.3,13.6,30.22,SSW,205,1.0,8.0,66,0.00,,,0.00,WeatherCatV1.22B15,2013-12-13 12:40:00,
2013-12-13 07:45:00,23.3,13.6,30.22,South,188,4.0,5.0,66,0.00,,,0.00,WeatherCatV1.22B15,2013-12-13 12:45:00,
2013-12-13 07:50:00,23.4,13.7,30.22,SSW,197,3.0,4.0,66,0.00,,,0.00,WeatherCatV1.22B15,2013-12-13 12:50:00,
2013-12-13 07:55:00,23.4,13.7,30.22,WSW,257,0.0,3.0,66,0.00,,,0.00,WeatherCatV1.22B15,2013-12-13 12:55:00,
2013-12-13 08:00:00,23.4,13.7,30.22,SSW,206,3.0,4.0,66,0.00,,,0.00,WeatherCatV1.22B15,2013-12-13 13:00:00,
2013-12-13 08:05:00,23.4,13.7,30.22,SW,217,0.0,1.0,66,0.00,,,0.00,WeatherCatV1.22B15,2013-12-13 13:05:00,
2013-12-13 08:10:00,23.5,13.8,30.23,SW,218,0.0,0.0,66,0.00,,,0.00,WeatherCatV1.22B15,2013-12-13 13:10:00,
2013-12-13 08:15:00,23.5,13.8,30.23,SSW,199,0.0,0.0,66,0.00,,,0.00,WeatherCatV1.22B15,2013-12-13 13:15:00,
2013-12-13 08:20:00,23.5,13.8,30.23,SSW,205,3.0,5.0,66,0.00,,,0.00,WeatherCatV1.22B15,2013-12-13 13:20:00,
2013-12-13 08:25:00,23.6,13.9,30.23,SW,215,2.0,5.0,66,0.00,,,0.00,WeatherCatV1.22B15,2013-12-13 13:25:00,
2013-12-13 08:30:00,23.6,13.9,30.23,SW,228,2.0,3.0,66,0.00,,,0.00,WeatherCatV1.22B15,2013-12-13 13:30:00,
2013-12-13 08:35:00,23.6,13.9,30.23,SSW,199,0.0,3.0,66,0.00,,,0.00,WeatherCatV1.22B15,2013-12-13 13:35:00,
2013-12-13 08:40:00,23.7,14.0,30.23,SW,216,0.0,0.0,66,0.00,,,0.00,WeatherCatV1.22B15,2013-12-13 13:40:00,
2013-12-13 08:45:00,23.8,14.1,30.23,SSW,211,0.0,2.0,66,0.00,,,0.00,WeatherCatV1.22B15,2013-12-13 13:45:00,
2013-12-13 08:50:00,23.8,13.8,30.23,SSW,195,2.0,4.0,65,0.00,,,0.00,WeatherCatV1.22B15,2013-12-13 13:50:00,
2013-12-13 08:55:00,24.0,14.3,30.23,SSW,200,0.0,3.0,66,0.00,,,0.00,WeatherCatV1.22B15,2013-12-13 13:55:00,
2013-12-13 09:00:00,24.1,14.4,30.24,SSW,199,3.0,3.0,66,0.00,,,0.00,WeatherCatV1.22B15,2013-12-13 14:00:00,
2013-12-13 09:05:00,24.1,14.1,30.24,South,185,0.0,4.0,65,0.00,,,0.00,WeatherCatV1.22B15,2013-12-13 14:05:00,
2013-12-13 09:10:00,24.1,14.1,30.24,SSW,210,1.0,5.0,65,0.00,,,0.00,WeatherCatV1.22B15,2013-12-13 14:10:00,
2013-12-13 09:15:00,24.2,14.2,30.25,SW,229,4.0,8.0,65,0.00,,,0.00,WeatherCatV1.22B15,2013-12-13 14:15:00,
2013-12-13 09:20:00,24.4,14.4,30.24,SW,220,3.0,4.0,65,0.00,,,0.00,WeatherCatV1.22B15,2013-12-13 14:20:00,
2013-12-13 09:25:00,24.4,14.4,30.24,SSW,205,6.0,7.0,65,0.00,,,0.00,WeatherCatV1.22B15,2013-12-13 14:25:00,
2013-12-13 09:30:00,24.4,14.4,30.24,SW,214,3.0,6.0,65,0.00,,,0.00,WeatherCatV1.22B15,2013-12-13 14:30:00,
2013-12-13 09:35:00,24.5,14.4,30.24,SSW,211,0.0,4.0,65,0.00,,,0.00,WeatherCatV1.22B15,2013-12-13 14:35:00,
2013-12-13 09:40:00,24.6,14.5,30.24,SSW,196,0.0,6.0,65,0.00,,,0.00,WeatherCatV1.22B15,2013-12-13 14:40:00,
2013-12-13 09:45:00,24.7,14.6,30.24,SW,214,2.0,9.0,65,0.00,,,0.00,WeatherCatV1.22B15,2013-12-13 14:45:00,
2013-12-13 09:50:00,24.9,14.5,30.24,SSW,192,0.0,9.0,64,0.00,,,0.00,WeatherCatV1.22B15,2013-12-13 14:50:00,
2013-12-13 09:56:00,25.0,14.9,30.24,WSW,256,5.0,10.0,65,0.00,,,0.00,WeatherCatV1.22B15,2013-12-13 14:56:00,
2013-12-13 10:01:00,25.1,15.0,30.24,SW,224,3.0,7.0,65,0.00,,,0.00,WeatherCatV1.22B15,2013-12-13 15:01:00,
2013-12-13 10:06:00,25.2,15.1,30.24,SSW,204,3.0,6.0,65,0.00,,,0.00,WeatherCatV1.22B15,2013-12-13 15:06:00,
2013-12-13 10:11:00,25.3,15.2,30.25,SSW,200,6.0,6.0,65,0.00,,,0.00,WeatherCatV1.22B15,2013-12-13 15:11:00,
2013-12-13 10:16:00,25.5,15.4,30.25,SSW,194,5.0,10.0,65,0.00,,,0.00,WeatherCatV1.22B15,2013-12-13 15:16:00,
2013-12-13 10:21:00,25.9,15.8,30.25,SW,225,1.0,6.0,65,0.00,,,0.00,WeatherCatV1.22B15,2013-12-13 15:21:00,
2013-12-13 10:26:00,25.8,15.3,30.24,SSW,207,4.0,8.0,64,0.00,,,0.00,WeatherCatV1.22B15,2013-12-13 15:26:00,
2013-12-13 10:31:00,26.1,15.6,30.24,South,171,3.0,6.0,64,0.00,,,0.00,WeatherCatV1.22B15,2013-12-13 15:31:00,
2013-12-13 10:36:00,26.2,15.7,30.24,SW,219,4.0,7.0,64,0.00,,,0.00,WeatherCatV1.22B15,2013-12-13 15:36:00,
2013-12-13 10:41:00,26.2,15.7,30.24,WSW,239,5.0,6.0,64,0.00,,,0.00,WeatherCatV1.22B15,2013-12-13 15:41:00,
2013-12-13 10:46:00,26.4,15.9,30.24,South,175,0.0,6.0,64,0.00,,,0.00,WeatherCatV1.22B15,2013-12-13 15:46:00,
2013-12-13 10:51:00,26.6,16.1,30.24,WSW,238,2.0,6.0,64,0.00,,,0.00,WeatherCatV1.22B15,2013-12-13 15:51:00,
2013-12-13 10:56:00,26.8,16.6,30.23,SW,229,4.0,5.0,65,0.00,,,0.00,WeatherCatV1.22B15,2013-12-13 15:56:00,
2013-12-13 11:01:00,26.9,16.7,30.24,WSW,248,7.0,10.0,65,0.00,,,0.00,WeatherCatV1.22B15,2013-12-13 16:01:00,
2013-12-13 11:06:00,27.0,16.8,30.23,SW,217,2.0,5.0,65,0.00,,,0.00,WeatherCatV1.22B15,2013-12-13 16:06:00,
2013-12-13 11:11:00,27.1,16.9,30.23,SSW,211,3.0,6.0,65,0.00,,,0.00,WeatherCatV1.22B15,2013-12-13 16:11:00,
2013-12-13 11:16:00,27.3,17.1,30.23,SSW,213,3.0,3.0,65,0.00,,,0.00,WeatherCatV1.22B15,2013-12-13 16:16:00,
2013-12-13 11:21:00,27.6,17.8,30.23,SSW,205,2.0,4.0,66,0.00,,,0.00,WeatherCatV1.22B15,2013-12-13 16:21:00,
2013-12-13 11:26:00,27.8,17.6,30.23,SW,232,0.0,4.0,65,0.00,,,0.00,WeatherCatV1.22B15,2013-12-13 16:26:00,
2013-12-13 11:31:00,28.0,18.1,30.23,South,174,0.0,4.0,66,0.00,,,0.00,WeatherCatV1.22B15,2013-12-13 16:31:00,
2013-12-13 11:36:00,28.0,18.1,30.23,WSW,245,7.0,7.0,66,0.00,,,0.00,WeatherCatV1.22B15,2013-12-13 16:36:00,
2013-12-13 11:41:00,28.2,18.7,30.23,West,263,2.0,7.0,67,0.00,,,0.00,WeatherCatV1.22B15,2013-12-13 16:41:00,
2013-12-13 11:46:00,28.4,19.2,30.23,WSW,248,5.0,9.0,68,0.00,,,0.00,WeatherCatV1.22B15,2013-12-13 16:46:00,
2013-12-13 11:51:00,28.4,19.2,30.22,SSW,201,2.0,5.0,68,0.00,,,0.00,WeatherCatV1.22B15,2013-12-13 16:51:00,
2013-12-13 11:56:00,28.6,19.4,30.22,SW,221,3.0,6.0,68,0.00,,,0.00,WeatherCatV1.22B15,2013-12-13 16:56:00,
2013-12-13 12:01:00,28.7,19.8,30.22,SSW,200,0.0,9.0,69,0.00,,,0.00,WeatherCatV1.22B15,2013-12-13 17:01:00,
2013-12-13 12:06:00,28.8,19.9,30.23,SW,225,5.0,7.0,69,0.00,,,0.00,WeatherCatV1.22B15,2013-12-13 17:06:00,
2013-12-13 12:11:00,28.6,19.7,30.23,SW,217,3.0,4.0,69,0.00,,,0.00,WeatherCatV1.22B15,2013-12-13 17:11:00,
2013-12-13 12:16:00,28.7,19.8,30.22,South,191,3.0,6.0,69,0.00,,,0.00,WeatherCatV1.22B15,2013-12-13 17:16:00,
2013-12-13 12:21:00,28.9,20.4,30.22,SSW,206,2.0,4.0,70,0.00,,,0.00,WeatherCatV1.22B15,2013-12-13 17:21:00,
2013-12-13 12:26:00,29.1,20.6,30.22,SSW,197,5.0,6.0,70,0.00,,,0.00,WeatherCatV1.22B15,2013-12-13 17:26:00,
2013-12-13 12:31:00,29.1,20.6,30.22,SSE,152,1.0,7.0,70,0.00,,,0.00,WeatherCatV1.22B15,2013-12-13 17:31:00,
2013-12-13 12:36:00,29.2,20.6,30.22,WSW,238,2.0,6.0,70,0.00,,,0.00,WeatherCatV1.22B15,2013-12-13 17:36:00,
2013-12-13 12:41:00,29.0,20.5,30.23,West,267,4.0,5.0,70,0.00,,,0.00,WeatherCatV1.22B15,2013-12-13 17:41:00,
2013-12-13 12:46:00,28.9,20.4,30.22,SW,215,4.0,6.0,70,0.00,,,0.00,WeatherCatV1.22B15,2013-12-13 17:46:00,
2013-12-13 12:51:00,28.8,20.6,30.22,SSW,195,4.0,6.0,71,0.00,,,0.00,WeatherCatV1.22B15,2013-12-13 17:51:00,
2013-12-13 12:56:00,28.7,20.5,30.22,WSW,252,7.0,10.0,71,0.00,,,0.00,WeatherCatV1.22B15,2013-12-13 17:56:00,
2013-12-13 13:01:00,28.7,20.5,30.22,SW,218,5.0,6.0,71,0.00,,,0.00,WeatherCatV1.22B15,2013-12-13 18:01:00,
2013-12-13 13:06:00,28.7,20.5,30.22,WSW,247,6.0,7.0,71,0.00,,,0.00,WeatherCatV1.22B15,2013-12-13 18:06:00,
2013-12-13 13:11:00,28.7,20.8,30.22,SSW,201,0.0,8.0,72,0.00,,,0.00,WeatherCatV1.22B15,2013-12-13 18:11:00,
2013-12-13 13:16:00,28.9,21.0,30.22,SW,227,2.0,4.0,72,0.00,,,0.00,WeatherCatV1.22B15,2013-12-13 18:16:00,
2013-12-13 13:21:00,29.0,21.1,30.21,South,186,5.0,5.0,72,0.00,,,0.00,WeatherCatV1.22B15,2013-12-13 18:21:00,
2013-12-13 13:26:00,29.0,21.1,30.22,WSW,248,0.0,0.0,72,0.00,,,0.00,WeatherCatV1.22B15,2013-12-13 18:26:00,
2013-12-13 13:31:00,29.1,21.2,30.21,South,182,4.0,7.0,72,0.00,,,0.00,WeatherCatV1.22B15,2013-12-13 18:31:00,
2013-12-13 13:36:00,28.9,20.7,30.21,South,188,0.0,5.0,71,0.00,,,0.00,WeatherCatV1.22B15,2013-12-13 18:36:00,
2013-12-13 13:41:00,28.9,20.7,30.21,WSW,238,4.0,7.0,71,0.00,,,0.00,WeatherCatV1.22B15,2013-12-13 18:41:00,
2013-12-13 13:46:00,28.9,20.7,30.21,SSW,202,0.0,6.0,71,0.00,,,0.00,WeatherCatV1.22B15,2013-12-13 18:46:00,
2013-12-13 13:51:00,28.8,20.6,30.21,WSW,240,0.0,2.0,71,0.00,,,0.00,WeatherCatV1.22B15,2013-12-13 18:51:00,
2013-12-13 13:56:00,28.8,20.6,30.21,SW,227,0.0,0.0,71,0.00,,,0.00,WeatherCatV1.22B15,2013-12-13 18:56:00,
2013-12-13 14:01:00,28.9,20.7,30.21,SW,225,0.0,3.0,71,0.00,,,0.00,WeatherCatV1.22B15,2013-12-13 19:01:00,
2013-12-13 14:06:00,28.9,20.7,30.22,South,180,0.0,0.0,71,0.00,,,0.00,WeatherCatV1.22B15,2013-12-13 19:06:00,
2013-12-13 14:11:00,28.9,20.4,30.22,SW,223,2.0,5.0,70,0.00,,,0.00,WeatherCatV1.22B15,2013-12-13 19:11:00,
2013-12-13 14:16:00,28.9,20.4,30.22,SSW,202,0.0,0.0,70,0.00,,,0.00,WeatherCatV1.22B15,2013-12-13 19:16:00,
2013-12-13 14:21:00,28.9,20.4,30.22,SW,215,2.0,3.0,70,0.00,,,0.00,WeatherCatV1.22B15,2013-12-13 19:21:00,
2013-12-13 14:26:00,28.8,20.3,30.23,WSW,255,3.0,3.0,70,0.00,,,0.00,WeatherCatV1.22B15,2013-12-13 19:26:00,
2013-12-13 14:31:00,28.9,20.4,30.23,SW,232,2.0,6.0,70,0.00,,,0.00,WeatherCatV1.22B15,2013-12-13 19:31:00,
2013-12-13 14:36:00,28.9,20.4,30.22,SW,232,3.0,4.0,70,0.00,,,0.00,WeatherCatV1.22B15,2013-12-13 19:36:00,
2013-12-13 14:41:00,29.0,20.5,30.23,WSW,249,3.0,5.0,70,0.00,,,0.00,WeatherCatV1.22B15,2013-12-13 19:41:00,
2013-12-13 14:46:00,29.0,20.1,30.23,SSW,196,3.0,5.0,69,0.00,,,0.00,WeatherCatV1.22B15,2013-12-13 19:46:00,
2013-12-13 14:51:00,29.1,20.2,30.22,SSW,209,0.0,4.0,69,0.00,,,0.00,WeatherCatV1.22B15,2013-12-13 19:51:00,
2013-12-13 14:56:00,29.1,19.9,30.23,South,186,3.0,8.0,68,0.00,,,0.00,WeatherCatV1.22B15,2013-12-13 19:56:00,
2013-12-13 15:01:00,29.1,19.9,30.23,SW,223,0.0,6.0,68,0.00,,,0.00,WeatherCatV1.22B15,2013-12-13 20:01:00,
2013-12-13 15:06:00,29.2,20.0,30.23,WSW,240,5.0,5.0,68,0.00,,,0.00,WeatherCatV1.22B15,2013-12-13 20:06:00,
2013-12-13 15:11:00,29.3,19.7,30.23,South,184,0.0,0.0,67,0.00,,,0.00,WeatherCatV1.22B15,2013-12-13 20:11:00,
2013-12-13 15:16:00,29.4,19.8,30.23,WSW,248,0.0,3.0,67,0.00,,,0.00,WeatherCatV1.22B15,2013-12-13 20:16:00,
2013-12-13 15:21:00,29.6,20.0,30.23,SW,231,0.0,0.0,67,0.00,,,0.00,WeatherCatV1.22B15,2013-12-13 20:21:00,
2013-12-13 15:26:00,29.6,19.7,30.23,SSW,206,0.0,4.0,66,0.00,,,0.00,WeatherCatV1.22B15,2013-12-13 20:26:00,
2013-12-13 15:31:00,29.6,20.0,30.23,WSW,241,0.0,0.0,67,0.00,,,0.00,WeatherCatV1.22B15,2013-12-13 20:31:00,
2013-12-13 15:36:00,29.6,20.0,30.23,SSW,202,4.0,5.0,67,0.00,,,0.00,WeatherCatV1.22B15,2013-12-13 20:36:00,
2013-12-13 15:41:00,29.7,20.1,30.24,SW,226,3.0,4.0,67,0.00,,,0.00,WeatherCatV1.22B15,2013-12-13 20:41:00,
2013-12-13 15:46:00,29.7,20.5,30.24,WSW,238,0.0,0.0,68,0.00,,,0.00,WeatherCatV1.22B15,2013-12-13 20:46:00,
2013-12-13 15:51:00,29.7,20.5,30.24,SW,234,0.0,4.0,68,0.00,,,0.00,WeatherCatV1.22B15,2013-12-13 20:51:00,
2013-12-13 15:56:00,29.7,20.5,30.24,SSW,194,0.0,3.0,68,0.00,,,0.00,WeatherCatV1.22B15,2013-12-13 20:56:00,
2013-12-13 16:01:00,29.7,20.5,30.24,SSW,194,0.0,2.0,68,0.00,,,0.00,WeatherCatV1.22B15,2013-12-13 21:01:00,
2013-12-13 16:06:00,29.7,20.5,30.24,South,187,0.0,0.0,68,0.00,,,0.00,WeatherCatV1.22B15,2013-12-13 21:06:00,
2013-12-13 16:11:00,29.7,20.8,30.24,WSW,245,0.0,0.0,69,0.00,,,0.00,WeatherCatV1.22B15,2013-12-13 21:11:00,
2013-12-13 16:16:00,29.7,21.1,30.24,SW,232,0.0,0.0,70,0.00,,,0.00,WeatherCatV1.22B15,2013-12-13 21:16:00,
2013-12-13 16:21:00,29.7,21.1,30.24,SSW,204,0.0,3.0,70,0.00,,,0.00,WeatherCatV1.22B15,2013-12-13 21:21:00,
2013-12-13 16:26:00,29.6,21.0,30.25,SSW,205,0.0,0.0,70,0.00,,,0.00,WeatherCatV1.22B15,2013-12-13 21:26:00,
2013-12-13 16:31:00,29.6,21.0,30.25,WSW,246,0.0,0.0,70,0.00,,,0.00,WeatherCatV1.22B15,2013-12-13 21:31:00,
2013-12-13 16:36:00,29.6,21.0,30.25,SSE,159,2.0,2.0,70,0.00,,,0.00,WeatherCatV1.22B15,2013-12-13 21:36:00,
2013-12-13 16:41:00,29.6,21.0,30.25,South,186,0.0,0.0,70,0.00,,,0.00,WeatherCatV1.22B15,2013-12-13 21:41:00,
2013-12-13 16:46:00,29.5,21.3,30.25,SSW,192,0.0,0.0,71,0.00,,,0.00,WeatherCatV1.22B15,2013-12-13 21:46:00,
2013-12-13 16:51:00,29.5,21.3,30.25,WSW,242,1.0,1.0,71,0.00,,,0.00,WeatherCatV1.22B15,2013-12-13 21:51:00,
2013-12-13 16:56:00,29.5,21.3,30.26,WSW,242,0.0,0.0,71,0.00,,,0.00,WeatherCatV1.22B15,2013-12-13 21:56:00,
2013-12-13 17:01:00,29.5,21.3,30.26,SW,234,2.0,3.0,71,0.00,,,0.00,WeatherCatV1.22B15,2013-12-13 22:01:00,
2013-12-13 17:06:00,29.5,21.3,30.26,SW,235,0.0,0.0,71,0.00,,,0.00,WeatherCatV1.22B15,2013-12-13 22:06:00,
2013-12-13 17:11:00,29.4,21.2,30.26,SW,235,0.0,0.0,71,0.00,,,0.00,WeatherCatV1.22B15,2013-12-13 22:11:00,
2013-12-13 17:16:00,29.4,21.2,30.26,SW,234,0.0,0.0,71,0.00,,,0.00,WeatherCatV1.22B15,2013-12-13 22:16:00,
2013-12-13 17:21:00,29.3,21.1,30.26,SW,235,0.0,0.0,71,0.00,,,0.00,WeatherCatV1.22B15,2013-12-13 22:21:00,
2013-12-13 17:26:00,29.3,21.1,30.26,SW,234,0.0,0.0,71,0.00,,,0.00,WeatherCatV1.22B15,2013-12-13 22:26:00,
2013-12-13 17:31:00,29.2,21.0,30.27,SW,234,0.0,0.0,71,0.00,,,0.00,WeatherCatV1.22B15,2013-12-13 22:31:00,
2013-12-13 17:36:00,29.2,21.0,30.27,SW,234,0.0,0.0,71,0.00,,,0.00,WeatherCatV1.22B15,2013-12-13 22:36:00,
2013-12-13 17:41:00,29.1,20.9,30.27,South,187,0.0,0.0,71,0.00,,,0.00,WeatherCatV1.22B15,2013-12-13 22:41:00,
2013-12-13 17:46:00,29.1,20.9,30.27,SW,214,0.0,2.0,71,0.00,,,0.00,WeatherCatV1.22B15,2013-12-13 22:46:00,
2013-12-13 17:51:00,29.1,20.9,30.27,SW,214,0.0,0.0,71,0.00,,,0.00,WeatherCatV1.22B15,2013-12-13 22:51:00,
2013-12-13 17:56:00,29.1,20.9,30.27,SW,214,0.0,0.0,71,0.00,,,0.00,WeatherCatV1.22B15,2013-12-13 22:56:00,
2013-12-13 18:01:00,29.1,20.9,30.27,SW,214,0.0,0.0,71,0.00,,,0.00,WeatherCatV1.22B15,2013-12-13 23:01:00,
2013-12-13 18:06:00,29.1,20.9,30.27,SW,214,0.0,0.0,71,0.00,,,0.00,WeatherCatV1.22B15,2013-12-13 23:06:00,
2013-12-13 18:11:00,29.1,20.9,30.27,SW,215,0.0,0.0,71,0.00,,,0.00,WeatherCatV1.22B15,2013-12-13 23:11:00,
2013-12-13 18:16:00,29.1,20.9,30.27,SW,215,0.0,0.0,71,0.00,,,0.00,WeatherCatV1.22B15,2013-12-13 23:16:00,
2013-12-13 18:21:00,29.1,20.9,30.27,SW,215,0.0,0.0,71,0.00,,,0.00,WeatherCatV1.22B15,2013-12-13 23:21:00,
2013-12-13 18:26:00,29.1,20.9,30.28,SW,215,0.0,0.0,71,0.00,,,0.00,WeatherCatV1.22B15,2013-12-13 23:26:00,
2013-12-13 18:31:00,29.1,20.9,30.27,SW,215,0.0,0.0,71,0.00,,,0.00,WeatherCatV1.22B15,2013-12-13 23:31:00,
2013-12-13 18:36:00,29.1,20.9,30.27,SW,215,0.0,1.0,71,0.00,,,0.00,WeatherCatV1.22B15,2013-12-13 23:36:00,
2013-12-13 18:41:00,29.1,20.9,30.27,SW,215,0.0,0.0,71,0.00,,,0.00,WeatherCatV1.22B15,2013-12-13 23:41:00,
2013-12-13 18:46:00,29.1,20.9,30.27,SW,215,0.0,0.0,71,0.00,,,0.00,WeatherCatV1.22B15,2013-12-13 23:46:00,
2013-12-13 18:51:00,29.0,20.8,30.27,SW,215,0.0,0.0,71,0.00,,,0.00,WeatherCatV1.22B15,2013-12-13 23:51:00,
2013-12-13 18:56:00,28.9,20.7,30.27,SW,215,0.0,0.0,71,0.00,,,0.00,WeatherCatV1.22B15,2013-12-13 23:56:00,
2013-12-13 19:01:00,28.9,20.7,30.27,SW,215,0.0,0.0,71,0.00,,,0.00,WeatherCatV1.22B15,2013-12-14 00:01:00,
2013-12-13 19:06:00,28.8,20.9,30.27,SW,215,0.0,0.0,72,0.00,,,0.00,WeatherCatV1.22B15,2013-12-14 00:06:00,
2013-12-13 19:12:00,28.7,20.8,30.27,SW,215,0.0,0.0,72,0.00,,,0.00,WeatherCatV1.22B15,2013-12-14 00:12:00,
2013-12-13 19:17:00,28.6,20.7,30.27,SW,215,0.0,0.0,72,0.00,,,0.00,WeatherCatV1.22B15,2013-12-14 00:17:00,
2013-12-13 19:22:00,28.6,20.7,30.28,SW,215,0.0,0.0,72,0.00,,,0.00,WeatherCatV1.22B15,2013-12-14 00:22:00,
2013-12-13 19:27:00,28.6,21.1,30.28,SW,215,0.0,0.0,73,0.00,,,0.00,WeatherCatV1.22B15,2013-12-14 00:27:00,
2013-12-13 19:32:00,28.6,21.1,30.28,SW,215,0.0,0.0,73,0.00,,,0.00,WeatherCatV1.22B15,2013-12-14 00:32:00,
2013-12-13 19:37:00,28.6,21.1,30.28,SW,215,0.0,0.0,73,0.00,,,0.00,WeatherCatV1.22B15,2013-12-14 00:37:00,
2013-12-13 19:42:00,28.6,21.1,30.28,SW,215,0.0,0.0,73,0.00,,,0.00,WeatherCatV1.22B15,2013-12-14 00:42:00,
2013-12-13 19:47:00,28.6,21.1,30.28,SW,215,0.0,0.0,73,0.00,,,0.00,WeatherCatV1.22B15,2013-12-14 00:47:00,
2013-12-13 19:52:00,28.6,21.1,30.29,SW,215,0.0,0.0,73,0.00,,,0.00,WeatherCatV1.22B15,2013-12-14 00:52:00,
2013-12-13 19:57:00,28.7,21.5,30.29,SW,215,0.0,0.0,74,0.00,,,0.00,WeatherCatV1.22B15,2013-12-14 00:57:00,
2013-12-13 20:02:00,28.7,21.8,30.29,SW,215,0.0,0.0,75,0.00,,,0.00,WeatherCatV1.22B15,2013-12-14 01:02:00,
2013-12-13 20:07:00,28.7,21.8,30.29,SW,215,0.0,0.0,75,0.00,,,0.00,WeatherCatV1.22B15,2013-12-14 01:07:00,
2013-12-13 20:12:00,28.7,21.8,30.29,SW,215,0.0,0.0,75,0.00,,,0.00,WeatherCatV1.22B15,2013-12-14 01:12:00,
2013-12-13 20:13:00,28.7,21.8,30.29,SW,215,0.0,0.0,75,0.00,,,0.00,WeatherCatV1.22B15,2013-12-14 01:13:00,
2013-12-13 20:18:00,28.7,21.8,30.29,SW,215,0.0,0.0,75,0.00,,,0.00,WeatherCatV1.22B15,2013-12-14 01:18:00,
2013-12-13 20:23:00,28.7,21.8,30.29,SW,215,0.0,0.0,75,0.00,,,0.00,WeatherCatV1.22B15,2013-12-14 01:23:00,
2013-12-13 20:28:00,28.7,22.1,30.29,SW,215,0.0,0.0,76,0.00,,,0.00,WeatherCatV1.22B15,2013-12-14 01:28:00,
2013-12-13 20:33:00,28.8,22.2,30.30,SW,215,0.0,0.0,76,0.00,,,0.00,WeatherCatV1.22B15,2013-12-14 01:33:00,
2013-12-13 20:38:00,28.8,22.2,30.29,SW,215,0.0,0.0,76,0.00,,,0.00,WeatherCatV1.22B15,2013-12-14 01:38:00,
2013-12-13 20:43:00,28.7,22.1,30.29,SW,215,0.0,0.0,76,0.00,,,0.00,WeatherCatV1.22B15,2013-12-14 01:43:00,
2013-12-13 20:48:00,28.6,22.0,30.29,SW,215,0.0,0.0,76,0.00,,,0.00,WeatherCatV1.22B15,2013-12-14 01:48:00,
2013-12-13 20:53:00,28.5,21.6,30.29,SW,215,0.0,0.0,75,0.00,,,0.00,WeatherCatV1.22B15,2013-12-14 01:53:00,
2013-12-13 20:58:00,28.5,21.6,30.29,SW,215,0.0,0.0,75,0.00,,,0.00,WeatherCatV1.22B15,2013-12-14 01:58:00,
2013-12-13 21:03:00,28.6,21.7,30.29,SW,215,0.0,0.0,75,0.00,,,0.00,WeatherCatV1.22B15,2013-12-14 02:03:00,
2013-12-13 21:08:00,28.6,21.7,30.29,SW,215,0.0,0.0,75,0.00,,,0.00,WeatherCatV1.22B15,2013-12-14 02:08:00,
2013-12-13 21:13:00,28.6,21.4,30.30,SW,215,0.0,0.0,74,0.00,,,0.00,WeatherCatV1.22B15,2013-12-14 02:13:00,
2013-12-13 21:18:00,28.5,21.3,30.30,SW,215,0.0,0.0,74,0.00,,,0.00,WeatherCatV1.22B15,2013-12-14 02:18:00,
2013-12-13 21:23:00,28.6,21.4,30.30,SW,215,0.0,0.0,74,0.00,,,0.00,WeatherCatV1.22B15,2013-12-14 02:23:00,
2013-12-13 21:28:00,28.6,21.4,30.30,SW,215,0.0,0.0,74,0.00,,,0.00,WeatherCatV1.22B15,2013-12-14 02:28:00,
2013-12-13 21:33:00,28.6,21.4,30.30,SW,215,0.0,0.0,74,0.00,,,0.00,WeatherCatV1.22B15,2013-12-14 02:33:00,
2013-12-13 21:38:00,28.6,21.4,30.30,SW,215,0.0,0.0,74,0.00,,,0.00,WeatherCatV1.22B15,2013-12-14 02:38:00,
2013-12-13 21:43:00,28.5,21.3,30.30,SW,215,0.0,0.0,74,0.00,,,0.00,WeatherCatV1.22B15,2013-12-14 02:43:00,
2013-12-13 21:48:00,28.5,21.3,30.30,SW,215,0.0,0.0,74,0.00,,,0.00,WeatherCatV1.22B15,2013-12-14 02:48:00,
2013-12-13 21:53:00,28.5,21.6,30.30,SW,215,0.0,0.0,75,0.00,,,0.00,WeatherCatV1.22B15,2013-12-14 02:53:00,
2013-12-13 21:58:00,28.5,21.6,30.30,SW,215,0.0,0.0,75,0.00,,,0.00,WeatherCatV1.22B15,2013-12-14 02:58:00,
2013-12-13 22:03:00,28.4,21.8,30.30,SW,215,0.0,0.0,76,0.00,,,0.00,WeatherCatV1.22B15,2013-12-14 03:03:00,
2013-12-13 22:08:00,28.4,21.5,30.30,SW,215,0.0,0.0,75,0.00,,,0.00,WeatherCatV1.22B15,2013-12-14 03:08:00,
2013-12-13 22:13:00,28.4,21.5,30.30,SW,215,0.0,0.0,75,0.00,,,0.00,WeatherCatV1.22B15,2013-12-14 03:13:00,
2013-12-13 22:18:00,28.5,21.9,30.30,ENE,69,1.0,2.0,76,0.00,,,0.00,WeatherCatV1.22B15,2013-12-14 03:18:00,
2013-12-13 22:23:00,28.5,22.2,30.30,NNW,345,2.0,4.0,77,0.00,,,0.00,WeatherCatV1.22B15,2013-12-14 03:23:00,
2013-12-13 22:28:00,28.5,22.5,30.29,NNE,25,0.0,1.0,78,0.00,,,0.00,WeatherCatV1.22B15,2013-12-14 03:28:00,
2013-12-13 22:33:00,28.4,22.7,30.29,NNE,15,0.0,2.0,79,0.00,,,0.00,WeatherCatV1.22B15,2013-12-14 03:33:00,
2013-12-13 22:38:00,28.2,22.8,30.29,NE,53,0.0,2.0,80,0.00,,,0.00,WeatherCatV1.22B15,2013-12-14 03:38:00,
2013-12-13 22:43:00,28.0,22.6,30.30,NE,40,3.0,4.0,80,0.00,,,0.00,WeatherCatV1.22B15,2013-12-14 03:43:00,
2013-12-13 22:48:00,27.9,22.8,30.30,ENE,64,0.0,2.0,81,0.00,,,0.00,WeatherCatV1.22B15,2013-12-14 03:48:00,
2013-12-13 22:53:00,27.8,22.7,30.30,NE,54,0.0,2.0,81,0.00,,,0.00,WeatherCatV1.22B15,2013-12-14 03:53:00,
2013-12-13 22:58:00,27.7,22.6,30.30,NE,42,0.0,0.0,81,0.00,,,0.00,WeatherCatV1.22B15,2013-12-14 03:58:00,
2013-12-13 23:03:00,27.7,22.6,30.30,ENE,71,0.0,4.0,81,0.00,,,0.00,WeatherCatV1.22B15,2013-12-14 04:03:00,
2013-12-13 23:08:00,27.6,22.8,30.30,ENE,70,0.0,2.0,82,0.00,,,0.00,WeatherCatV1.22B15,2013-12-14 04:08:00,
2013-12-13 23:13:00,27.6,22.8,30.29,NE,36,1.0,4.0,82,0.00,,,0.00,WeatherCatV1.22B15,2013-12-14 04:13:00,
2013-12-13 23:18:00,27.5,22.7,30.30,NE,52,0.0,4.0,82,0.00,,,0.00,WeatherCatV1.22B15,2013-12-14 04:18:00,
2013-12-13 23:23:00,27.4,22.6,30.30,ENE,70,1.0,2.0,82,0.00,,,0.00,WeatherCatV1.22B15,2013-12-14 04:23:00,
2013-12-13 23:28:00,27.3,22.5,30.30,North,355,0.0,0.0,82,0.00,,,0.00,WeatherCatV1.22B15,2013-12-14 04:28:00,
2013-12-13 23:33:00,27.2,22.5,30.30,NE,47,2.0,2.0,82,0.00,,,0.00,WeatherCatV1.22B15,2013-12-14 04:33:00,
2013-12-13 23:38:00,27.1,22.4,30.30,NNE,30,0.0,0.0,82,0.00,,,0.00,WeatherCatV1.22B15,2013-12-14 04:38:00,
2013-12-13 23:43:00,27.0,22.2,30.30,ENE,63,2.0,3.0,82,0.00,,,0.00,WeatherCatV1.22B15,2013-12-14 04:43:00,
2013-12-13 23:48:00,26.8,22.1,30.30,NE,44,3.0,3.0,82,0.00,,,0.00,WeatherCatV1.22B15,2013-12-14 04:48:00,
2013-12-13 23:53:00,26.7,22.0,30.30,ENE,71,0.0,3.0,82,0.00,,,0.00,WeatherCatV1.22B15,2013-12-14 04:53:00,
2013-12-13 23:58:00,26.6,21.9,30.30,ENE,60,0.0,2.0,82,0.00,,,0.00,WeatherCatV1.22B15,2013-12-14 04:58:00,